^^
Station Historical Data
Daily Summary for January 12, 2018 Units:  English    Metric   Both
« Previous Day
Next Day »
Daily Weekly Monthly Yearly Custom
  High: Low: Average:
Temperature: TemperatureF °F 25.9 °F 50.5 °F
Dew Point: DewpointF °F 22.5 °F 48.9 °F
Humidity: Humidity% 85% 94%
Wind Speed: WindSpeedMPHmph 0.0mph 0.6mph
Wind Gust: WindSpeedGustMPHmph - -
Wind- - SSW
Pressure: PressureIn in 29.63 in -
Precipitation: 0.71 in    
Historical Graphs
 
 
Tabular Data for January 12, 2018
Time Temperature Dew Point Pressure Wind Wind Speed Wind Gust Humidity Rainfall Rate (Hourly)
TemperatureF °F DewpointF °F PressureIn in Calm     Humidity% HourlyPrecipIn in
00:01 56.7 °F 55.8 °F 29.90 in Calm     97% 0.00 in
00:06 56.8 °F 55.9 °F 29.89 in Calm   1.0 mph 97% 0.00 in
00:17 57.7 °F 56.8 °F 29.88 in SE 2.0 mph 2.0 mph 97% 0.00 in
00:30 58.3 °F 57.4 °F 29.88 in Calm     97% 0.00 in
00:38 58.1 °F 57.0 °F 29.88 in Calm     96% 0.00 in
00:48 58.3 °F 57.2 °F 29.87 in SE 0.9 mph 1.0 mph 96% 0.00 in
00:53 58.3 °F 57.2 °F 29.87 in Calm   1.0 mph 96% 0.00 in
00:58 58.5 °F 57.4 °F 29.87 in Calm   2.0 mph 96% 0.00 in
01:03 58.3 °F 57.2 °F 29.87 in Calm     96% 0.00 in
01:13 58.5 °F 57.4 °F 29.87 in Calm     96% 0.00 in
01:18 58.5 °F 57.4 °F 29.86 in Calm     96% 0.00 in
01:21 58.5 °F 57.4 °F 29.86 in Calm     96% 0.00 in
01:26 58.6 °F 57.6 °F 29.86 in Calm     96% 0.00 in
01:31 58.5 °F 57.0 °F 29.86 in Calm     95% 0.00 in
01:37 58.3 °F 56.8 °F 29.85 in Calm     95% 0.00 in
01:42 57.9 °F 56.5 °F 29.85 in Calm     95% 0.00 in
01:47 57.9 °F 56.5 °F 29.85 in Calm     95% 0.00 in
01:53 58.1 °F 57.0 °F 29.85 in Calm     96% 0.00 in
02:06 57.9 °F 56.8 °F 29.85 in Calm     96% 0.00 in
02:11 58.1 °F 57.0 °F 29.84 in Calm   1.0 mph 96% 0.00 in
02:16 59.2 °F 58.1 °F 29.84 in Calm   1.0 mph 96% 0.00 in
02:21 59.7 °F 58.6 °F 29.84 in Calm     96% 0.00 in
02:26 60.3 °F 59.2 °F 29.85 in SE 4.9 mph 5.0 mph 96% 0.00 in
02:32 60.4 °F 59.4 °F 29.85 in Calm     96% 0.00 in
02:40 60.6 °F 59.2 °F 29.84 in Calm   2.0 mph 95% 0.00 in
02:45 61.0 °F 59.5 °F 29.85 in Calm   5.0 mph 95% 0.00 in
02:52 61.2 °F 59.7 °F 29.84 in Calm     95% 0.00 in
03:00 61.2 °F 59.4 °F 29.84 in SE 2.0 mph 5.0 mph 94% 0.00 in
03:05 61.2 °F 59.4 °F 29.84 in ESE 0.9 mph 2.0 mph 94% 0.00 in
03:16 61.2 °F 59.4 °F 29.83 in Calm   4.0 mph 94% 0.00 in
03:27 61.3 °F 59.5 °F 29.83 in Calm   2.0 mph 94% 0.00 in
03:32 61.3 °F 59.5 °F 29.83 in Calm   8.0 mph 94% 0.00 in
03:41 61.5 °F 59.5 °F 29.82 in SSE 0.9 mph 6.0 mph 93% 0.00 in
03:46 61.5 °F 59.5 °F 29.82 in Calm   1.0 mph 93% 0.00 in
03:56 61.7 °F 59.7 °F 29.81 in SSE 4.0 mph 5.0 mph 93% 0.00 in
04:06 61.7 °F 59.7 °F 29.81 in East 0.9 mph 6.0 mph 93% 0.00 in
04:11 61.7 °F 59.4 °F 29.81 in Calm   5.0 mph 92% 0.00 in
04:23 61.9 °F 59.2 °F 29.80 in Calm   1.0 mph 91% 0.00 in
04:28 61.7 °F 59.0 °F 29.81 in Calm   4.0 mph 91% 0.00 in
04:34 61.5 °F 59.2 °F 29.81 in Calm   5.0 mph 92% 0.00 in
04:39 61.5 °F 59.2 °F 29.81 in Calm   4.0 mph 92% 0.00 in
04:44 61.3 °F 59.4 °F 29.81 in Calm   4.0 mph 93% 0.00 in
04:49 61.2 °F 59.2 °F 29.80 in ESE 0.9 mph 2.0 mph 93% 0.00 in
04:54 60.8 °F 58.8 °F 29.80 in Calm   4.0 mph 93% 0.01 in
04:59 60.6 °F 58.8 °F 29.80 in Calm     94% 0.01 in
05:05 60.4 °F 58.6 °F 29.81 in Calm   4.0 mph 94% 0.01 in
05:10 60.4 °F 58.6 °F 29.80 in Calm   2.0 mph 94% 0.01 in
05:15 60.4 °F 58.6 °F 29.80 in Calm   2.0 mph 94% 0.01 in
05:20 60.4 °F 58.6 °F 29.80 in Calm   4.0 mph 94% 0.01 in
05:26 60.3 °F 58.5 °F 29.80 in ESE 0.9 mph 4.0 mph 94% 0.02 in
05:32 60.3 °F 58.8 °F 29.80 in Calm   4.0 mph 95% 0.05 in
05:37 60.1 °F 58.6 °F 29.80 in Calm   4.0 mph 95% 0.05 in
05:47 60.1 °F 58.6 °F 29.79 in SE 4.0 mph 4.0 mph 95% 0.06 in
05:59 59.7 °F 58.3 °F 29.78 in Calm   2.0 mph 95% 0.05 in
06:08 59.7 °F 57.9 °F 29.79 in SE 2.0 mph 4.0 mph 94% 0.05 in
06:13 59.7 °F 57.9 °F 29.78 in SE 4.0 mph 5.0 mph 94% 0.05 in
06:18 59.7 °F 57.9 °F 29.78 in Calm   6.0 mph 94% 0.05 in
06:23 59.5 °F 57.7 °F 29.78 in Calm   1.0 mph 94% 0.04 in
06:28 59.5 °F 57.7 °F 29.79 in Calm   1.0 mph 94% 0.03 in
06:33 59.4 °F 57.6 °F 29.78 in ENE 0.9 mph 2.0 mph 94% 0.01 in
06:40 59.4 °F 57.6 °F 29.79 in Calm   1.0 mph 94% 0.01 in
06:46 59.4 °F 57.6 °F 29.79 in Calm   1.0 mph 94% 0.00 in
06:51 59.4 °F 57.6 °F 29.78 in East 0.9 mph 1.0 mph 94% 0.00 in
06:56 59.4 °F 57.6 °F 29.78 in Calm     94% 0.00 in
07:01 59.4 °F 57.6 °F 29.78 in East 4.0 mph 4.0 mph 94% 0.00 in
07:08 59.5 °F 57.7 °F 29.78 in ESE 0.9 mph 2.0 mph 94% 0.00 in
07:14 59.5 °F 57.7 °F 29.78 in Calm   3.0 mph 94% 0.00 in
07:19 59.5 °F 57.7 °F 29.77 in Calm   2.0 mph 94% 0.00 in
07:24 59.5 °F 57.7 °F 29.78 in Calm   5.0 mph 94% 0.00 in
07:29 59.7 °F 57.9 °F 29.78 in Calm   5.0 mph 94% 0.00 in
07:35 59.7 °F 57.7 °F 29.78 in Calm   1.0 mph 93% 0.01 in
07:40 59.5 °F 57.7 °F 29.77 in ESE 0.9 mph 1.0 mph 94% 0.02 in
07:45 59.4 °F 57.6 °F 29.77 in Calm   2.0 mph 94% 0.02 in
07:50 59.4 °F 57.6 °F 29.76 in Calm   8.0 mph 94% 0.04 in
07:55 59.4 °F 57.9 °F 29.76 in ESE 4.0 mph 6.0 mph 95% 0.05 in
08:01 59.2 °F 57.7 °F 29.76 in Calm   1.0 mph 95% 0.05 in
08:07 59.2 °F 57.7 °F 29.76 in Calm     95% 0.06 in
08:12 59.2 °F 57.7 °F 29.75 in Calm     95% 0.06 in
08:28 59.2 °F 58.1 °F 29.75 in Calm     96% 0.08 in
08:33 59.2 °F 58.1 °F 29.75 in Calm     96% 0.08 in
08:39 59.2 °F 58.1 °F 29.75 in Calm     96% 0.07 in
08:44 59.2 °F 58.1 °F 29.74 in Calm     96% 0.08 in
08:49 59.2 °F 58.1 °F 29.74 in Calm   4.0 mph 96% 0.07 in
09:00 59.2 °F 58.1 °F 29.74 in Calm   2.0 mph 96% 0.07 in
09:05 59.2 °F 58.1 °F 29.75 in Calm     96% 0.06 in
09:15 59.2 °F 58.1 °F 29.75 in Calm     96% 0.08 in
09:25 58.5 °F 57.0 °F 29.78 in SE 4.0 mph 6.0 mph 95% 0.18 in
09:30 57.4 °F 55.6 °F 29.77 in Calm   2.0 mph 94% 0.23 in
09:35 56.7 °F 55.0 °F 29.77 in Calm     94% 0.28 in
09:40 56.1 °F 54.5 °F 29.77 in Calm     94% 0.29 in
09:45 55.9 °F 54.5 °F 29.77 in Calm     95% 0.30 in
09:50 55.6 °F 54.1 °F 29.77 in Calm     95% 0.29 in
09:55 55.6 °F 54.1 °F 29.78 in Calm     95% 0.30 in
10:00 55.4 °F 54.0 °F 29.78 in Calm     95% 0.29 in
10:06 55.4 °F 54.3 °F 29.78 in Calm     96% 0.30 in
10:11 55.2 °F 54.1 °F 29.78 in Calm     96% 0.31 in
10:16 55.2 °F 54.1 °F 29.77 in Calm     96% 0.28 in
10:21 55.2 °F 54.1 °F 29.76 in Calm     96% 0.24 in
10:26 55.2 °F 54.1 °F 29.77 in Calm     96% 0.20 in
10:31 55.2 °F 54.1 °F 29.77 in Calm     96% 0.16 in
10:36 55.2 °F 54.1 °F 29.78 in Calm     96% 0.13 in
10:41 55.2 °F 54.1 °F 29.78 in Calm     96% 0.10 in
10:46 55.0 °F 54.0 °F 29.78 in Calm     96% 0.11 in
10:55 54.9 °F 53.8 °F 29.78 in Calm     96% 0.11 in
11:00 54.9 °F 53.8 °F 29.78 in Calm     96% 0.12 in
11:11 54.3 °F 53.2 °F 29.77 in Calm     96% 0.11 in
11:19 54.3 °F 53.2 °F 29.76 in Calm     96% 0.11 in
11:24 54.5 °F 53.4 °F 29.75 in Calm   1.0 mph 96% 0.09 in
11:38 54.9 °F 53.8 °F 29.74 in Calm     96% 0.08 in
11:44 54.9 °F 53.8 °F 29.73 in Calm     96% 0.07 in
11:53 54.9 °F 53.8 °F 29.71 in Calm     96% 0.05 in
11:58 54.9 °F 53.8 °F 29.71 in Calm     96% 0.05 in
12:05 55.0 °F 54.0 °F 29.71 in Calm     96% 0.03 in
12:13 55.2 °F 54.1 °F 29.69 in Calm     96% 0.02 in
12:22 55.2 °F 54.1 °F 29.70 in Calm     96% 0.01 in
12:32 55.4 °F 54.3 °F 29.70 in Calm     96% 0.00 in
12:39 55.4 °F 54.3 °F 29.70 in Calm     96% 0.01 in
12:44 55.6 °F 54.5 °F 29.70 in Calm     96% 0.01 in
12:52 55.6 °F 54.7 °F 29.68 in Calm     97% 0.02 in
13:06 55.4 °F 54.3 °F 29.68 in Calm     96% 0.04 in
13:11 55.0 °F 54.0 °F 29.68 in Calm     96% 0.05 in
13:18 54.7 °F 53.6 °F 29.67 in Calm   1.0 mph 96% 0.05 in
13:23 54.3 °F 53.2 °F 29.66 in Calm     96% 0.05 in
13:29 54.3 °F 53.2 °F 29.67 in Calm     96% 0.05 in
13:35 54.3 °F 53.2 °F 29.67 in Calm     96% 0.05 in
13:40 54.3 °F 53.2 °F 29.66 in Calm     96% 0.04 in
13:45 54.3 °F 53.2 °F 29.65 in Calm     96% 0.04 in
13:50 54.3 °F 53.2 °F 29.64 in Calm   1.0 mph 96% 0.03 in
13:55 54.3 °F 53.2 °F 29.65 in Calm     96% 0.04 in
14:00 54.3 °F 53.2 °F 29.65 in Calm     96% 0.03 in
14:06 54.1 °F 53.1 °F 29.65 in Calm     96% 0.02 in
14:11 54.1 °F 53.1 °F 29.64 in Calm   2.0 mph 96% 0.01 in
14:18 54.1 °F 53.1 °F 29.64 in Calm     96% 0.01 in
14:28 54.3 °F 53.4 °F 29.64 in SE 0.9 mph 1.0 mph 97% 0.01 in
14:38 54.3 °F 53.4 °F 29.64 in Calm   2.0 mph 97% 0.01 in
14:51 54.3 °F 53.4 °F 29.65 in Calm   4.0 mph 97% 0.01 in
15:02 54.5 °F 53.6 °F 29.64 in Calm   1.0 mph 97% 0.00 in
15:07 54.5 °F 53.4 °F 29.63 in Calm   2.0 mph 96% 0.02 in
15:12 54.3 °F 53.2 °F 29.64 in Calm   1.0 mph 96% 0.02 in
15:17 54.1 °F 53.1 °F 29.65 in Calm     96% 0.02 in
15:22 54.0 °F 52.9 °F 29.65 in Calm   1.0 mph 96% 0.02 in
15:28 53.8 °F 52.7 °F 29.65 in WNW 2.0 mph 3.0 mph 96% 0.02 in
15:33 53.2 °F 52.2 °F 29.66 in Calm     96% 0.02 in
15:38 52.9 °F 51.8 °F 29.66 in Calm   4.0 mph 96% 0.02 in
15:43 52.2 °F 51.1 °F 29.67 in Calm   1.0 mph 96% 0.02 in
15:48 51.4 °F 50.0 °F 29.67 in Calm     95% 0.02 in
15:54 50.7 °F 49.3 °F 29.67 in West 2.0 mph 2.0 mph 95% 0.02 in
15:59 50.0 °F 48.6 °F 29.67 in Calm   1.0 mph 95% 0.02 in
16:04 49.5 °F 48.0 °F 29.67 in Calm   2.0 mph 95% 0.01 in
16:13 48.7 °F 47.3 °F 29.68 in Calm   6.0 mph 95% 0.00 in
16:23 48.2 °F 48.0 °F 29.69 in Calm     99% 0.00 in
16:30 47.8 °F 46.4 °F 29.69 in Calm     95% 0.00 in
16:35 47.7 °F 46.2 °F 29.69 in Calm   5.0 mph 95% 0.00 in
16:41 47.3 °F 45.9 °F 29.69 in Calm     95% 0.00 in
16:48 46.8 °F 45.3 °F 29.70 in Calm   4.0 mph 95% 0.00 in
16:53 46.2 °F 44.8 °F 29.70 in ENE 0.9 mph 1.0 mph 95% 0.00 in
16:58 45.9 °F 44.2 °F 29.70 in Calm   2.0 mph 94% 0.00 in
17:03 45.5 °F 44.2 °F 29.71 in Calm   5.0 mph 95% 0.00 in
17:09 45.0 °F 43.7 °F 29.72 in SE 4.0 mph 4.0 mph 95% 0.00 in
17:18 44.4 °F 43.2 °F 29.72 in Calm   1.0 mph 95% 0.00 in
17:24 44.2 °F 43.0 °F 29.73 in Calm     95% 0.00 in
17:30 43.9 °F 42.6 °F 29.73 in Calm     95% 0.00 in
17:38 43.5 °F 42.3 °F 29.74 in SSE 2.0 mph 2.0 mph 95% 0.00 in
17:43 43.0 °F 41.7 °F 29.74 in ESE 0.9 mph 4.0 mph 95% 0.00 in
17:55 41.5 °F 39.9 °F 29.76 in Calm   2.0 mph 94% 0.00 in
18:00 40.6 °F 39.0 °F 29.76 in Calm   4.0 mph 94% 0.00 in
18:05 39.9 °F 38.3 °F 29.77 in Calm   1.0 mph 94% 0.00 in
18:11 39.6 °F 37.9 °F 29.78 in North 4.9 mph 5.0 mph 94% 0.00 in
18:16 39.0 °F 37.4 °F 29.79 in Calm   5.0 mph 94% 0.00 in
18:22 37.9 °F 36.3 °F 29.79 in Calm   3.0 mph 94% 0.00 in
18:31 37.0 °F 35.4 °F 29.80 in West 2.0 mph 4.0 mph 94% 0.00 in
18:36 36.9 °F 35.2 °F 29.81 in West 6.9 mph 13.0 mph 94% 0.00 in
18:41 36.0 °F 34.2 °F 29.81 in Calm   5.0 mph 93% 0.00 in
18:46 35.4 °F 33.6 °F 29.82 in WNW 0.9 mph 1.0 mph 93% 0.00 in
18:51 35.1 °F 33.3 °F 29.83 in Calm   3.0 mph 93% 0.00 in
18:59 34.5 °F 32.7 °F 29.83 in Calm   4.0 mph 93% 0.00 in
19:04 34.2 °F 32.4 °F 29.84 in Calm   4.0 mph 93% 0.00 in
19:09 34.0 °F 32.2 °F 29.84 in Calm   1.0 mph 93% 0.00 in
19:14 33.8 °F 32.0 °F 29.84 in Calm     93% 0.00 in
19:19 33.4 °F 31.6 °F 29.85 in NW 4.9 mph 12.0 mph 93% 0.00 in
19:38 32.2 °F 30.2 °F 29.86 in SSW 2.0 mph 6.0 mph 92% 0.00 in
19:45 32.2 °F 30.2 °F 29.86 in West 0.9 mph 3.0 mph 92% 0.00 in
19:54 32.0 °F 30.0 °F 29.87 in Calm   3.0 mph 92% 0.00 in
20:00 31.8 °F 29.5 °F 29.87 in Calm   7.0 mph 91% 0.00 in
20:08 31.3 °F 28.8 °F 29.89 in NNW 0.9 mph 9.0 mph 90% 0.00 in
20:14 31.1 °F 28.6 °F 29.89 in NW 2.0 mph 4.0 mph 90% 0.00 in
20:19 30.9 °F 28.4 °F 29.89 in West 0.9 mph 10.0 mph 90% 0.00 in
20:24 30.7 °F 28.2 °F 29.90 in Calm   1.0 mph 90% 0.00 in
20:29 30.7 °F 28.2 °F 29.90 in Calm   5.0 mph 90% 0.00 in
20:35 30.6 °F 28.0 °F 29.90 in NW 0.9 mph 12.0 mph 90% 0.00 in
20:40 30.4 °F 27.5 °F 29.90 in Calm   8.0 mph 89% 0.00 in
20:45 30.0 °F 27.1 °F 29.90 in Calm   14.0 mph 89% 0.00 in
20:56 29.8 °F 27.0 °F 29.91 in WNW 4.9 mph 9.0 mph 89% 0.00 in
21:01 29.7 °F 26.8 °F 29.91 in West 2.0 mph 9.0 mph 89% 0.00 in
21:18 28.9 °F 25.9 °F 29.92 in Calm   1.0 mph 88% 0.00 in
21:26 28.8 °F 25.3 °F 29.93 in East 4.0 mph 7.0 mph 87% 0.00 in
21:31 28.6 °F 25.2 °F 29.93 in NW 6.0 mph 6.0 mph 87% 0.00 in
21:41 27.9 °F 23.9 °F 29.93 in West 2.0 mph 9.0 mph 85% 0.00 in
21:55 27.5 °F 23.9 °F 29.94 in NW 4.9 mph 10.0 mph 86% 0.00 in
22:00 27.1 °F 23.2 °F 29.94 in WNW 0.9 mph 5.0 mph 85% 0.00 in
22:06 27.0 °F 23.0 °F 29.95 in Calm   8.0 mph 85% 0.00 in
22:17 26.8 °F 23.2 °F 29.95 in Calm   4.0 mph 86% 0.00 in
22:24 26.6 °F 23.0 °F 29.96 in SW 2.0 mph 7.0 mph 86% 0.00 in
22:29 26.2 °F 22.6 °F 29.96 in Calm   2.0 mph 86% 0.00 in
23:00 25.9 °F 22.5 °F 29.98 in Calm   6.0 mph 87% 0.00 in
23:06 26.1 °F 23.0 °F 29.98 in Calm     88% 0.00 in
23:13 25.9 °F 22.5 °F 29.98 in NW 2.0 mph 8.0 mph 87% 0.00 in
23:22 25.9 °F 22.5 °F 29.98 in Calm   8.0 mph 87% 0.00 in
23:35 25.9 °F 22.5 °F 29.98 in NW 2.0 mph 2.0 mph 87% 0.00 in
23:40 25.9 °F 22.5 °F 29.98 in NNW 6.9 mph 7.0 mph 87% 0.00 in
23:50 26.1 °F 23.0 °F 29.99 in Calm   3.0 mph 88% 0.00 in
23:55 26.1 °F 23.0 °F 29.99 in Calm   3.0 mph 88% 0.00 in
Ellijay Weather
Compliments of Weather Underground - 2.25 mb